createdAt,value
2022-09-20T00:01:11.299Z,101062.97
2022-09-20T00:03:43.607Z,101066.13
2022-09-20T00:06:12.135Z,101069.59
2022-09-20T00:08:39.526Z,101058.06
2022-09-20T00:11:15.531Z,101066.63
2022-09-20T00:13:44.446Z,101061.28
2022-09-20T00:16:13.845Z,101074.47
2022-09-20T00:18:40.715Z,101065.13
2022-09-20T00:21:08.021Z,101069.03
2022-09-20T00:23:36.054Z,101064.63
2022-09-20T00:26:04.661Z,101068.63
2022-09-20T00:28:32.304Z,101071.00
2022-09-20T00:30:58.909Z,101073.59
2022-09-20T00:33:49.079Z,101066.22
2022-09-20T00:36:16.454Z,101068.50
2022-09-20T00:38:43.149Z,101067.44
2022-09-20T00:41:10.614Z,101065.97
2022-09-20T00:43:46.868Z,101071.03
2022-09-20T00:46:37.060Z,101076.66
2022-09-20T00:49:16.307Z,101066.47
2022-09-20T00:51:47.341Z,101073.28
2022-09-20T00:54:20.566Z,101073.13
2022-09-20T00:56:48.816Z,101071.94
2022-09-20T00:59:16.069Z,101080.53
2022-09-20T01:01:44.224Z,101071.56
2022-09-20T01:04:14.495Z,101079.78
2022-09-20T01:06:43.820Z,101077.63
2022-09-20T01:09:10.880Z,101077.03
2022-09-20T01:11:39.202Z,101079.13
2022-09-20T01:14:05.955Z,101082.97
2022-09-20T01:16:34.274Z,101083.25
2022-09-20T01:19:07.275Z,101085.09
2022-09-20T01:21:34.532Z,101089.75
2022-09-20T01:24:10.929Z,101084.88
2022-09-20T01:26:46.625Z,101076.97
2022-09-20T01:29:34.492Z,101083.25
2022-09-20T01:32:06.328Z,101084.25
2022-09-20T01:34:40.412Z,101077.34
2022-09-20T01:37:31.569Z,101076.50
2022-09-20T01:40:06.526Z,101079.25
2022-09-20T01:42:43.666Z,101082.09
2022-09-20T01:45:31.839Z,101082.09
2022-09-20T01:48:18.773Z,101084.78
2022-09-20T01:51:13.147Z,101079.63
2022-09-20T01:53:59.288Z,101083.63
2022-09-20T01:56:58.165Z,101083.56
2022-09-20T01:59:43.512Z,101085.31
2022-09-20T02:02:22.367Z,101092.97
2022-09-20T02:04:51.906Z,101090.28
2022-09-20T02:07:19.125Z,101100.59
2022-09-20T02:10:04.083Z,101095.06
2022-09-20T02:12:49.141Z,101096.44
2022-09-20T02:15:52.996Z,101102.88
2022-09-20T02:18:48.672Z,101100.88
2022-09-20T02:21:48.916Z,101105.72
2022-09-20T02:24:37.249Z,101096.84
2022-09-20T02:27:18.419Z,101104.59
2022-09-20T02:29:48.331Z,101105.97
2022-09-20T02:32:52.112Z,101099.78
2022-09-20T02:35:36.784Z,101108.03
2022-09-20T02:38:03.376Z,101109.31
2022-09-20T02:40:48.300Z,101110.16
2022-09-20T02:43:44.008Z,101104.59
2022-09-20T02:46:59.867Z,101106.53
2022-09-20T02:49:48.311Z,101114.16
2022-09-20T02:52:41.025Z,101114.56
2022-09-20T02:55:18.682Z,101114.47
2022-09-20T02:58:16.332Z,101117.09
2022-09-20T03:01:18.069Z,101111.38
2022-09-20T03:04:23.385Z,101111.53
2022-09-20T03:07:12.549Z,101113.81
2022-09-20T03:09:56.630Z,101114.59
2022-09-20T03:13:01.796Z,101119.91
2022-09-20T03:15:40.346Z,101119.81
2022-09-20T03:18:09.969Z,101127.56
2022-09-20T03:21:01.839Z,101126.56
2022-09-20T03:24:03.884Z,101124.78
2022-09-20T03:27:01.255Z,101131.50
2022-09-20T03:29:43.721Z,101132.47
2022-09-20T03:32:15.540Z,101135.31
2022-09-20T03:35:08.200Z,101142.16
2022-09-20T03:37:43.448Z,101145.69
2022-09-20T03:40:32.501Z,101140.25
2022-09-20T03:43:11.255Z,101139.13
2022-09-20T03:46:08.279Z,101145.72
2022-09-20T03:49:10.310Z,101145.88
2022-09-20T03:51:45.643Z,101145.53
2022-09-20T03:54:43.267Z,101145.13
2022-09-20T03:57:28.045Z,101149.75
2022-09-20T04:00:07.511Z,101160.03
2022-09-20T04:02:55.905Z,101146.13
2022-09-20T04:05:46.863Z,101149.25
2022-09-20T04:08:47.754Z,101151.06
2022-09-20T04:11:42.797Z,101152.88
2022-09-20T04:14:50.400Z,101161.44
2022-09-20T04:17:28.960Z,101161.97
2022-09-20T04:20:01.504Z,101158.00
2022-09-20T04:22:29.933Z,101157.16
2022-09-20T04:25:04.569Z,101157.66
2022-09-20T04:27:41.913Z,101156.66
2022-09-20T04:30:22.273Z,101154.13
2022-09-20T04:32:58.855Z,101156.75
2022-09-20T04:36:01.911Z,101156.06
2022-09-20T04:38:30.072Z,101160.09
2022-09-20T04:41:18.397Z,101155.44
2022-09-20T04:44:09.493Z,101158.81
2022-09-20T04:47:30.378Z,101154.59
2022-09-20T04:50:20.936Z,101163.06
2022-09-20T04:53:24.714Z,101155.53
2022-09-20T04:56:14.778Z,101164.91
2022-09-20T04:59:06.061Z,101166.72
2022-09-20T05:01:38.714Z,101169.53
2022-09-20T05:04:26.791Z,101166.31
2022-09-20T05:07:08.786Z,101168.09
2022-09-20T05:09:47.562Z,101175.31
2022-09-20T05:12:49.391Z,101182.97
2022-09-20T05:15:37.851Z,101182.22
2022-09-20T05:18:45.537Z,101182.22
2022-09-20T05:21:50.162Z,101189.97
2022-09-20T05:24:16.839Z,101185.66
2022-09-20T05:26:46.425Z,101201.31
2022-09-20T05:29:36.676Z,101194.50
2022-09-20T05:32:22.846Z,101206.47
2022-09-20T05:35:25.466Z,101211.53
2022-09-20T05:38:21.691Z,101216.13
2022-09-20T05:41:10.786Z,101215.22
2022-09-20T05:43:51.024Z,101220.03
2022-09-20T05:46:24.798Z,101222.31
2022-09-20T05:49:12.050Z,101225.72
2022-09-20T05:51:53.712Z,101231.28
2022-09-20T05:55:04.777Z,101232.13
2022-09-20T05:57:38.952Z,101233.09
2022-09-20T06:00:21.029Z,101236.78
2022-09-20T06:03:04.456Z,101246.56
2022-09-20T06:05:52.761Z,101239.19
2022-09-20T06:08:28.984Z,101251.06
2022-09-20T06:11:10.637Z,101252.16
2022-09-20T06:14:15.227Z,101256.91
2022-09-20T06:16:47.481Z,101258.81
2022-09-20T06:19:19.298Z,101252.72
2022-09-20T06:21:55.439Z,101258.03
2022-09-20T06:24:23.087Z,101264.06
2022-09-20T06:26:52.724Z,101253.34
2022-09-20T06:29:29.709Z,101260.84
2022-09-20T06:31:56.556Z,101258.09
2022-09-20T06:34:23.331Z,101263.34
2022-09-20T06:37:24.817Z,101256.00
2022-09-20T06:40:18.689Z,101262.34
2022-09-20T06:42:45.301Z,101266.09
2022-09-20T06:45:12.012Z,101274.38
2022-09-20T06:47:38.985Z,101260.78
2022-09-20T06:50:06.380Z,101272.31
2022-09-20T06:52:34.577Z,101273.81
2022-09-20T06:55:06.369Z,101276.59
2022-09-20T06:57:40.269Z,101272.13
2022-09-20T07:00:10.445Z,101274.56
2022-09-20T07:02:37.046Z,101268.25
2022-09-20T07:05:03.969Z,101273.38
2022-09-20T07:07:30.564Z,101286.03
2022-09-20T07:09:58.528Z,101285.69
2022-09-20T07:12:25.661Z,101290.19
2022-09-20T07:14:52.492Z,101293.53
2022-09-20T07:17:19.248Z,101293.44
2022-09-20T07:19:45.809Z,101294.56
2022-09-20T07:22:12.452Z,101300.06
2022-09-20T07:24:39.092Z,101298.88
2022-09-20T07:27:05.836Z,101299.06
2022-09-20T07:29:32.664Z,101305.22
2022-09-20T07:31:59.309Z,101303.00
2022-09-20T07:34:27.220Z,101304.63
2022-09-20T07:36:53.906Z,101304.16
2022-09-20T07:39:20.492Z,101308.34
2022-09-20T07:41:50.685Z,101308.50
2022-09-20T07:44:21.589Z,101311.19
2022-09-20T07:47:06.584Z,101315.09
2022-09-20T07:49:33.165Z,101316.31
2022-09-20T07:51:59.820Z,101319.44
2022-09-20T07:54:27.630Z,101327.69
2022-09-20T07:56:54.724Z,101328.72
2022-09-20T07:59:21.393Z,101325.88
2022-09-20T08:01:48.053Z,101329.69
2022-09-20T08:04:14.673Z,101329.59
2022-09-20T08:06:45.820Z,101332.63
2022-09-20T08:09:14.764Z,101338.34
2022-09-20T08:11:42.841Z,101328.13
2022-09-20T08:14:15.128Z,101340.53
2022-09-20T08:16:47.393Z,101337.28
2022-09-20T08:19:23.800Z,101344.53
2022-09-20T08:21:52.643Z,101337.06
2022-09-20T08:24:19.424Z,101346.19
2022-09-20T08:26:46.172Z,101356.63
2022-09-20T08:29:15.025Z,101342.84
2022-09-20T08:31:42.566Z,101351.44
2022-09-20T08:34:11.670Z,101349.00
2022-09-20T08:36:46.284Z,101357.22
2022-09-20T08:42:20.039Z,101354.00
2022-09-20T08:45:01.671Z,101361.84
2022-09-20T08:47:35.922Z,101366.47
2022-09-20T08:50:10.022Z,101372.19
2022-09-20T08:52:40.837Z,101370.88
2022-09-20T08:55:28.104Z,101370.97
2022-09-20T08:57:56.958Z,101372.66
2022-09-20T09:00:33.875Z,101373.66
2022-09-20T09:03:06.556Z,101377.16
2022-09-20T09:05:40.960Z,101380.44
2022-09-20T09:08:19.183Z,101374.28
2022-09-20T09:10:58.207Z,101379.00
2022-09-20T09:13:56.477Z,101377.25
2022-09-20T09:16:33.651Z,101380.28
2022-09-20T09:19:34.174Z,101374.88
2022-09-20T09:22:03.961Z,101380.66
2022-09-20T09:24:34.022Z,101385.22
2022-09-20T09:27:14.890Z,101376.47
2022-09-20T09:29:53.296Z,101394.25
2022-09-20T09:32:22.025Z,101387.53
2022-09-20T09:34:48.640Z,101379.44
2022-09-20T09:37:28.408Z,101387.63
2022-09-20T09:40:16.431Z,101385.47
2022-09-20T09:42:57.869Z,101393.44
2022-09-20T09:45:31.439Z,101395.78
2022-09-20T09:48:00.789Z,101392.13
2022-09-20T09:50:30.852Z,101398.03
2022-09-20T09:53:06.092Z,101399.13
2022-09-20T09:55:49.151Z,101386.59
2022-09-20T09:58:28.182Z,101385.75
2022-09-20T10:00:57.381Z,101392.94
2022-09-20T10:03:39.049Z,101394.59
2022-09-20T10:06:18.652Z,101399.47
2022-09-20T10:08:54.425Z,101394.63
2022-09-20T10:11:26.730Z,101390.72
2022-09-20T10:14:05.523Z,101389.78
2022-09-20T10:16:44.661Z,101386.97
2022-09-20T10:19:36.072Z,101394.44
2022-09-20T10:22:11.215Z,101394.16
2022-09-20T10:25:17.180Z,101384.53
2022-09-20T10:28:05.480Z,101381.66
2022-09-20T10:30:58.089Z,101397.22
2022-09-20T10:33:50.451Z,101396.03
2022-09-20T10:36:34.658Z,101393.97
2022-09-20T10:39:10.545Z,101397.97
2022-09-20T10:42:12.560Z,101393.41
2022-09-20T10:44:54.989Z,101390.94
2022-09-20T10:47:31.547Z,101391.81
2022-09-20T10:50:17.708Z,101398.53
2022-09-20T10:53:06.071Z,101398.09
2022-09-20T10:55:47.426Z,101398.66
2022-09-20T10:58:30.538Z,101406.75
2022-09-20T11:01:23.053Z,101409.63
2022-09-20T11:04:04.989Z,101413.63
2022-09-20T11:07:03.441Z,101417.28
2022-09-20T11:09:38.368Z,101408.53
2022-09-20T11:12:17.744Z,101415.19
2022-09-20T11:15:23.633Z,101418.78
2022-09-20T11:18:10.051Z,101414.41
2022-09-20T11:20:47.502Z,101412.94
2022-09-20T11:23:25.480Z,101421.66
2022-09-20T11:25:56.868Z,101418.84
2022-09-20T11:28:32.074Z,101410.78
2022-09-20T11:31:02.732Z,101416.19
2022-09-20T11:33:40.739Z,101415.41
2022-09-20T11:36:15.553Z,101413.69
2022-09-20T11:38:53.184Z,101418.66
2022-09-20T11:41:27.234Z,101418.00
2022-09-20T11:43:57.441Z,101421.81
2022-09-20T11:46:52.340Z,101417.56
2022-09-20T11:49:56.733Z,101417.94
2022-09-20T11:52:26.400Z,101424.38
2022-09-20T11:55:28.203Z,101420.84
2022-09-20T11:58:03.925Z,101417.03
2022-09-20T12:00:35.252Z,101431.03
2022-09-20T12:03:06.413Z,101435.56
2022-09-20T12:05:38.105Z,101429.88
2022-09-20T12:08:22.277Z,101432.22
2022-09-20T12:11:27.669Z,101427.59
2022-09-20T12:14:04.229Z,101426.75
2022-09-20T12:16:43.509Z,101425.78
2022-09-20T12:19:14.006Z,101431.34
2022-09-20T12:21:58.823Z,101423.72
2022-09-20T12:24:31.956Z,101425.72
2022-09-20T12:27:20.301Z,101423.22
2022-09-20T12:29:50.093Z,101416.66
2022-09-20T12:32:48.877Z,101420.03
2022-09-20T12:35:37.160Z,101427.72
2022-09-20T12:38:22.051Z,101420.97
2022-09-20T12:41:04.536Z,101420.03
2022-09-20T12:43:33.359Z,101424.97
2022-09-20T12:46:05.404Z,101412.78
2022-09-20T12:48:38.112Z,101418.13
2022-09-20T12:51:50.867Z,101416.81
2022-09-20T12:54:17.719Z,101429.19
2022-09-20T12:56:46.700Z,101430.25
2022-09-20T12:59:23.490Z,101432.91
2022-09-20T13:01:50.984Z,101444.84
2022-09-20T13:04:41.159Z,101450.66
2022-09-20T13:07:52.440Z,101474.59
2022-09-20T13:10:34.992Z,101475.28
2022-09-20T13:13:12.576Z,101486.91
2022-09-20T13:15:40.513Z,101493.84
2022-09-20T13:18:12.068Z,101502.66
2022-09-20T13:20:40.082Z,101501.63
2022-09-20T13:23:06.906Z,101502.16
2022-09-20T13:25:34.706Z,101500.19
2022-09-20T13:28:20.991Z,101509.19
2022-09-20T13:30:48.005Z,101495.81
2022-09-20T13:33:25.334Z,101492.03
2022-09-20T13:35:57.180Z,101493.03
2022-09-20T13:38:27.966Z,101497.38
2022-09-20T13:41:12.999Z,101495.75
2022-09-20T13:43:46.498Z,101486.31
2022-09-20T13:46:17.101Z,101489.13
2022-09-20T13:48:47.352Z,101494.72
2022-09-20T13:51:19.349Z,101493.78
2022-09-20T13:53:47.572Z,101485.75
2022-09-20T13:56:32.132Z,101494.19
2022-09-20T13:59:05.174Z,101493.31
2022-09-20T14:01:34.974Z,101485.69
2022-09-20T14:04:15.088Z,101492.06
2022-09-20T14:06:42.557Z,101495.06
2022-09-20T14:09:20.600Z,101492.88
2022-09-20T14:11:47.729Z,101502.47
2022-09-20T14:14:19.892Z,101492.69
2022-09-20T14:16:49.669Z,101496.06
2022-09-20T14:19:18.997Z,101496.59
2022-09-20T14:21:46.205Z,101497.94
2022-09-20T14:24:16.412Z,101500.31
2022-09-20T14:26:59.499Z,101496.50
2022-09-20T14:29:36.014Z,101501.22
2022-09-20T14:32:19.325Z,101503.00
2022-09-20T14:34:59.142Z,101497.78
2022-09-20T14:37:45.633Z,101505.88
2022-09-20T14:40:27.249Z,101497.47
2022-09-20T14:43:00.177Z,101491.75
2022-09-20T14:45:35.336Z,101500.38
2022-09-20T14:48:10.100Z,101493.16
2022-09-20T14:50:43.332Z,101492.75
2022-09-20T14:53:10.209Z,101489.00
2022-09-20T14:55:39.697Z,101492.44
2022-09-20T14:58:15.107Z,101494.88
2022-09-20T15:00:51.042Z,101502.19
2022-09-20T15:03:25.407Z,101500.59
2022-09-20T15:05:52.169Z,101498.56
2022-09-20T15:08:20.391Z,101500.13
2022-09-20T15:10:47.845Z,101499.94
2022-09-20T15:13:15.032Z,101505.88
2022-09-20T15:15:44.315Z,101512.50
2022-09-20T15:18:23.520Z,101515.28
2022-09-20T15:20:50.944Z,101522.09
2022-09-20T15:23:18.345Z,101515.66
2022-09-20T15:25:45.936Z,101522.34
2022-09-20T15:28:16.813Z,101521.19
2022-09-20T15:30:44.740Z,101516.72
2022-09-20T15:33:12.397Z,101511.91
2022-09-20T15:35:40.626Z,101525.19
2022-09-20T15:38:11.873Z,101521.03
2022-09-20T15:40:40.596Z,101524.16
2022-09-20T15:43:09.539Z,101522.09
2022-09-20T15:45:37.097Z,101529.09
2022-09-20T15:48:04.058Z,101538.56
2022-09-20T15:50:30.814Z,101548.97
2022-09-20T15:53:00.057Z,101550.53
2022-09-20T15:55:27.109Z,101543.06
2022-09-20T15:57:53.888Z,101547.53
2022-09-20T16:00:20.576Z,101555.22
2022-09-20T16:02:50.326Z,101544.72
2022-09-20T16:05:17.037Z,101544.41
2022-09-20T16:07:43.596Z,101545.91
2022-09-20T16:10:10.277Z,101536.63
2022-09-20T16:12:36.970Z,101540.66
2022-09-20T16:15:03.749Z,101538.78
2022-09-20T16:17:49.036Z,101541.41
2022-09-20T16:20:15.642Z,101540.19
2022-09-20T16:22:42.302Z,101536.31
2022-09-20T16:25:09.220Z,101550.63
2022-09-20T16:27:35.812Z,101545.84
2022-09-20T16:30:03.105Z,101542.91
2022-09-20T16:32:29.844Z,101544.69
2022-09-20T16:34:58.545Z,101557.97
2022-09-20T16:37:27.248Z,101542.94
2022-09-20T16:39:53.887Z,101555.84
2022-09-20T16:42:21.043Z,101552.91
2022-09-20T16:44:47.887Z,101552.91
2022-09-20T16:47:24.873Z,101550.75
2022-09-20T16:49:54.264Z,101554.63
2022-09-20T16:52:21.213Z,101560.41
2022-09-20T16:54:47.969Z,101556.59
2022-09-20T16:57:15.640Z,101560.72
2022-09-20T16:59:42.581Z,101561.28
2022-09-20T17:02:12.087Z,101567.72
2022-09-20T17:04:38.870Z,101562.09
2022-09-20T17:07:06.118Z,101565.94
2022-09-20T17:09:32.991Z,101567.13
2022-09-20T17:12:00.280Z,101570.31
2022-09-20T17:14:26.958Z,101579.47
2022-09-20T17:16:53.669Z,101578.03
2022-09-20T17:19:20.929Z,101576.56
2022-09-20T17:21:50.518Z,101575.28
2022-09-20T17:24:21.407Z,101582.66
2022-09-20T17:26:50.410Z,101586.50
2022-09-20T17:29:18.730Z,101590.19
2022-09-20T17:31:53.993Z,101592.88
2022-09-20T17:34:21.990Z,101590.41
2022-09-20T17:36:49.505Z,101596.19
2022-09-20T17:39:16.729Z,101589.47
2022-09-20T17:41:45.801Z,101603.47
2022-09-20T17:44:13.291Z,101600.78
2022-09-20T17:46:42.303Z,101601.72
2022-09-20T17:49:13.733Z,101607.09
2022-09-20T17:51:49.466Z,101609.00
2022-09-20T17:54:17.204Z,101610.78
2022-09-20T17:56:46.499Z,101616.84
2022-09-20T17:59:16.191Z,101620.94
2022-09-20T18:01:44.845Z,101623.63
2022-09-20T18:04:12.054Z,101628.78
2022-09-20T18:06:44.563Z,101627.00
2022-09-20T18:09:15.046Z,101638.34
2022-09-20T18:11:49.052Z,101636.88
2022-09-20T18:14:17.803Z,101640.31
2022-09-20T18:16:45.457Z,101643.00
2022-09-20T18:19:14.149Z,101649.38
2022-09-20T18:21:41.018Z,101644.66
2022-09-20T18:24:11.906Z,101651.00
2022-09-20T18:26:38.743Z,101652.28
2022-09-20T18:29:11.351Z,101655.09
2022-09-20T18:31:45.286Z,101659.75
2022-09-20T18:34:20.107Z,101661.09
2022-09-20T18:36:54.920Z,101658.84
2022-09-20T18:39:23.488Z,101668.75
2022-09-20T18:41:50.630Z,101664.72
2022-09-20T18:44:18.631Z,101672.00
2022-09-20T18:46:46.255Z,101663.63
2022-09-20T18:49:14.938Z,101672.31
2022-09-20T18:51:42.821Z,101672.31
2022-09-20T18:54:10.822Z,101678.75
2022-09-20T18:56:42.601Z,101678.75
2022-09-20T18:59:15.213Z,101684.38
2022-09-20T19:01:47.898Z,101677.72
2022-09-20T19:04:44.206Z,101678.84
2022-09-20T19:07:29.462Z,101685.22
2022-09-20T19:10:27.221Z,101679.94
2022-09-20T19:13:00.177Z,101684.50
2022-09-20T19:15:45.639Z,101681.41
2022-09-20T19:18:39.555Z,101685.19
2022-09-20T19:21:35.356Z,101693.28
2022-09-20T19:24:22.664Z,101694.22
2022-09-20T19:26:49.440Z,101694.34
2022-09-20T19:29:25.291Z,101691.88
2022-09-20T19:31:55.526Z,101698.16
2022-09-20T19:34:25.555Z,101694.72
2022-09-20T19:37:18.491Z,101701.81
2022-09-20T19:40:06.679Z,101707.41
2022-09-20T19:43:00.207Z,101711.88
2022-09-20T19:45:32.795Z,101710.06
2022-09-20T19:48:40.712Z,101717.19
2022-09-20T19:51:12.530Z,101720.91
2022-09-20T19:53:39.558Z,101719.38
2022-09-20T19:56:25.745Z,101724.53
2022-09-20T19:58:55.025Z,101725.50
2022-09-20T20:01:23.519Z,101724.81
2022-09-20T20:03:51.406Z,101724.09
2022-09-20T20:06:47.530Z,101730.22
2022-09-20T20:09:45.702Z,101730.81
2022-09-20T20:12:30.509Z,101726.47
2022-09-20T20:15:21.620Z,101728.44
2022-09-20T20:17:48.177Z,101734.50
2022-09-20T20:20:38.681Z,101736.56
2022-09-20T20:23:14.472Z,101739.28
2022-09-20T20:26:03.087Z,101750.72
2022-09-20T20:28:30.473Z,101747.25
2022-09-20T20:31:00.008Z,101748.22
2022-09-20T20:33:27.104Z,101755.34
2022-09-20T20:35:55.792Z,101756.31
2022-09-20T20:38:26.507Z,101749.47
2022-09-20T20:41:07.245Z,101754.78
2022-09-20T20:43:36.419Z,101756.63
2022-09-20T20:46:04.472Z,101761.00
2022-09-20T20:48:31.243Z,101761.91
2022-09-20T20:51:12.572Z,101764.72
2022-09-20T20:53:47.829Z,101762.16
2022-09-20T20:56:18.283Z,101762.31
2022-09-20T20:58:46.377Z,101768.41
2022-09-20T21:01:18.454Z,101765.91
2022-09-20T21:03:50.192Z,101765.84
2022-09-20T21:06:17.661Z,101768.34
2022-09-20T21:08:49.626Z,101778.03
2022-09-20T21:11:27.443Z,101769.53
2022-09-20T21:13:57.218Z,101779.16
2022-09-20T21:16:31.876Z,101775.66
2022-09-20T21:18:58.992Z,101773.09
2022-09-20T21:21:31.138Z,101770.81
2022-09-20T21:24:01.421Z,101778.63
2022-09-20T21:26:32.053Z,101777.88
2022-09-20T21:29:07.097Z,101777.09
2022-09-20T21:31:36.369Z,101784.75
2022-09-20T21:34:07.568Z,101782.34
2022-09-20T21:36:35.836Z,101786.75
2022-09-20T21:39:03.385Z,101799.91
2022-09-20T21:41:32.545Z,101799.91
2022-09-20T21:44:02.259Z,101798.28
2022-09-20T21:46:31.625Z,101801.94
2022-09-20T21:49:00.548Z,101804.53
2022-09-20T21:51:31.053Z,101798.53
2022-09-20T21:53:59.705Z,101806.78
2022-09-20T21:56:28.325Z,101811.25
2022-09-20T21:58:55.698Z,101810.31
2022-09-20T22:01:24.543Z,101816.50
2022-09-20T22:03:54.931Z,101800.94
2022-09-20T22:06:23.957Z,101813.53
2022-09-20T22:08:58.896Z,101808.25
2022-09-20T22:11:31.612Z,101809.78
2022-09-20T22:13:59.105Z,101818.38
2022-09-20T22:16:31.328Z,101809.09
2022-09-20T22:19:01.513Z,101808.38
2022-09-20T22:21:33.443Z,101809.47
2022-09-20T22:24:02.755Z,101811.25
2022-09-20T22:26:32.572Z,101802.72
2022-09-20T22:28:59.280Z,101811.38
2022-09-20T22:31:28.764Z,101815.88
2022-09-20T22:33:58.054Z,101815.16
2022-09-20T22:36:27.336Z,101818.75
2022-09-20T22:38:54.584Z,101815.34
2022-09-20T22:41:21.242Z,101812.81
2022-09-20T22:43:48.027Z,101808.69
2022-09-20T22:46:21.858Z,101817.38
2022-09-20T22:48:49.516Z,101816.59
2022-09-20T22:51:23.856Z,101817.53
2022-09-20T22:53:54.786Z,101820.22
2022-09-20T22:56:28.876Z,101818.63
2022-09-20T22:58:56.738Z,101816.81
2022-09-20T23:01:26.046Z,101814.34
2022-09-20T23:03:56.208Z,101820.50
2022-09-20T23:06:26.573Z,101817.16
2022-09-20T23:08:55.591Z,101818.97
2022-09-20T23:11:23.768Z,101812.09
2022-09-20T23:13:55.501Z,101819.09
2022-09-20T23:16:24.640Z,101812.09
2022-09-20T23:18:53.345Z,101815.41
2022-09-20T23:21:20.817Z,101822.44
2022-09-20T23:23:52.266Z,101820.94
2022-09-20T23:26:19.748Z,101831.41
2022-09-20T23:28:51.878Z,101827.00
2022-09-20T23:31:19.076Z,101833.16
2022-09-20T23:33:50.230Z,101835.00
2022-09-20T23:36:18.152Z,101838.38
2022-09-20T23:38:45.332Z,101840.06
2022-09-20T23:41:13.998Z,101845.22
2022-09-20T23:43:41.687Z,101834.25
2022-09-20T23:46:10.141Z,101847.31
2022-09-20T23:48:37.865Z,101842.19
2022-09-20T23:51:05.699Z,101845.69
2022-09-20T23:53:33.292Z,101846.47
2022-09-20T23:56:00.184Z,101842.31
2022-09-20T23:58:27.157Z,101841.44
